Time;durP1;ratioP1;P1;durP2;ratioP2;P2;SDS_P1;SDS_P2;PMS_P1;PMS_P2;Temp;Humidity;BMP_temperature;BMP_pressure;BME280_temperature;BME280_humidity;BME280_pressure;Samples;Min_cycle;Max_cycle;Signal;HPM_P1;HPM_P2
2023/10/02 00:02:40;;;;;;;29.02;16.00;;;17.10;99.90;;;;;;5058947;28;20044;-54
2023/10/02 00:05:07;;;;;;;31.40;16.00;;;17.20;99.90;;;;;;5063375;28;20145;-56
2023/10/02 00:07:37;;;;;;;24.80;14.48;;;17.20;99.90;;;;;;5059825;28;20131;-57
2023/10/02 00:10:04;;;;;;;22.02;14.05;;;17.30;99.90;;;;;;5067848;28;20057;-58
2023/10/02 00:12:31;;;;;;;24.90;14.80;;;17.30;99.90;;;;;;5062708;28;20094;-56
2023/10/02 00:14:58;;;;;;;24.20;16.08;;;17.30;99.90;;;;;;5067800;28;20118;-55
2023/10/02 00:17:24;;;;;;;25.38;16.00;;;17.30;99.90;;;;;;5065328;28;20453;-55
2023/10/02 00:19:59;;;;;;;27.05;15.02;;;17.40;99.90;;;;;;5070221;28;20412;-54
2023/10/02 00:22:38;;;;;;;28.17;14.90;;;17.40;99.90;;;;;;5067355;28;20437;-58
2023/10/02 00:25:08;;;;;;;29.35;15.93;;;17.40;99.90;;;;;;5062550;28;20047;-56
2023/10/02 00:27:35;;;;;;;26.52;16.15;;;17.40;99.90;;;;;;5061734;28;20053;-54
2023/10/02 00:30:02;;;;;;;27.00;14.30;;;17.40;99.90;;;;;;5071238;28;20112;-56
2023/10/02 00:32:33;;;;;;;25.55;14.95;;;17.40;99.90;;;;;;5068682;28;20139;-54
2023/10/02 00:35:03;;;;;;;26.17;15.65;;;17.40;99.90;;;;;;5062865;28;20091;-56
2023/10/02 00:37:47;;;;;;;28.75;14.98;;;17.40;99.90;;;;;;5070049;28;20127;-57
2023/10/02 00:40:22;;;;;;;26.08;14.95;;;17.40;99.90;;;;;;5065810;28;20049;-55
2023/10/02 00:42:49;;;;;;;24.80;14.95;;;17.40;99.90;;;;;;5050272;28;20076;-55
2023/10/02 00:45:17;;;;;;;25.45;15.18;;;17.40;99.90;;;;;;5068658;28;20063;-57
2023/10/02 00:47:45;;;;;;;25.85;15.35;;;17.40;99.90;;;;;;5052726;28;20041;-56
2023/10/02 00:50:48;;;;;;;25.17;15.13;;;17.40;99.90;;;;;;5068461;28;20411;-54
2023/10/02 00:53:15;;;;;;;27.52;15.50;;;17.40;99.90;;;;;;5069463;28;20033;-56
2023/10/02 00:55:44;;;;;;;31.45;16.55;;;17.40;99.90;;;;;;5070460;28;20487;-55
2023/10/02 00:58:15;;;;;;;28.60;15.93;;;17.40;99.90;;;;;;5070140;28;20131;-54
2023/10/02 01:00:50;;;;;;;28.05;17.63;;;17.40;99.90;;;;;;5049901;28;20089;-52
2023/10/02 01:03:16;;;;;;;26.63;15.13;;;17.40;99.90;;;;;;5071111;28;20044;-54
2023/10/02 01:05:50;;;;;;;;;;;17.40;99.90;;;;;;5067331;28;20056;-57
2023/10/02 01:08:25;;;;;;;30.00;16.00;;;17.50;99.90;;;;;;5061695;28;19927;-54
2023/10/02 01:10:59;;;;;;;29.75;15.77;;;17.40;99.90;;;;;;5062880;28;20048;-58
2023/10/02 01:13:29;;;;;;;27.85;16.58;;;17.50;99.90;;;;;;5067725;28;20075;-57
2023/10/02 01:16:00;;;;;;;26.13;15.15;;;17.40;99.90;;;;;;5067164;28;20024;-57
2023/10/02 01:18:29;;;;;;;24.63;15.38;;;17.40;99.90;;;;;;5063253;28;20187;-56
2023/10/02 01:21:00;;;;;;;31.10;16.27;;;17.40;99.90;;;;;;5062389;28;20048;-57
2023/10/02 01:23:31;;;;;;;26.38;14.77;;;17.50;99.90;;;;;;5059930;28;20041;-56
2023/10/02 01:25:57;;;;;;;29.30;16.02;;;17.50;99.90;;;;;;5066865;28;20118;-53
2023/10/02 01:28:51;;;;;;;27.10;15.70;;;17.40;99.90;;;;;;5069186;28;20049;-56
2023/10/02 01:31:32;;;;;;;28.23;16.10;;;17.40;99.90;;;;;;5061518;28;20041;-55
2023/10/02 01:33:59;;;;;;;24.42;14.95;;;17.40;99.90;;;;;;5070934;28;20032;-57
2023/10/02 01:36:31;;;;;;;26.00;15.13;;;17.40;99.90;;;;;;5061143;28;20579;-54
2023/10/02 01:38:59;;;;;;;28.90;16.13;;;17.40;99.90;;;;;;5070257;28;20037;-56
2023/10/02 01:41:29;;;;;;;24.88;14.05;;;17.40;99.90;;;;;;5064226;28;20044;-59
2023/10/02 01:43:57;;;;;;;32.28;16.10;;;17.40;99.90;;;;;;5070406;28;20052;-57
2023/10/02 01:46:25;;;;;;;27.00;15.00;;;17.30;99.90;;;;;;5066592;28;20044;-59
2023/10/02 01:48:51;;;;;;;28.17;15.93;;;17.30;99.90;;;;;;5066555;28;20049;-58
2023/10/02 01:51:25;;;;;;;26.33;16.25;;;17.30;99.90;;;;;;5067106;28;20114;-54
2023/10/02 01:53:56;;;;;;;29.55;15.73;;;17.20;99.90;;;;;;5069749;28;20120;-57
2023/10/02 01:56:27;;;;;;;24.45;14.80;;;17.30;99.90;;;;;;5066990;28;20040;-56
2023/10/02 01:58:54;;;;;;;26.05;14.73;;;17.20;99.90;;;;;;5068919;28;20522;-57
2023/10/02 02:01:21;;;;;;;24.20;14.57;;;17.20;99.90;;;;;;5067283;28;20040;-56
2023/10/02 02:03:49;;;;;;;27.63;15.57;;;17.20;99.90;;;;;;5067319;28;20041;-57
2023/10/02 02:06:20;;;;;;;29.75;14.57;;;17.20;99.90;;;;;;5067267;28;20040;-56
2023/10/02 02:08:53;;;;;;;24.85;15.13;;;17.20;99.90;;;;;;5068768;28;20094;-55
2023/10/02 02:11:22;;;;;;;29.25;16.45;;;17.20;99.90;;;;;;5068657;28;20040;-56
2023/10/02 02:13:52;;;;;;;27.65;15.57;;;17.20;99.90;;;;;;5073575;28;20036;-56
2023/10/02 02:16:54;;;;;;;27.48;15.02;;;17.10;99.90;;;;;;5070923;28;20037;-56
2023/10/02 02:19:14;;;;;;;24.88;14.98;;;17.10;99.90;;;;;;5066254;28;20047;-57
2023/10/02 02:21:39;;;;;;;23.77;15.70;;;17.10;99.90;;;;;;5061806;28;20033;-56
2023/10/02 02:24:08;;;;;;;26.52;15.93;;;17.10;99.90;;;;;;5060891;28;20048;-54
2023/10/02 02:26:37;;;;;;;24.75;14.85;;;17.10;99.90;;;;;;5055402;28;20483;-56
2023/10/02 02:29:04;;;;;;;24.92;14.85;;;17.10;99.90;;;;;;5063437;28;20056;-54
2023/10/02 02:31:30;;;;;;;27.85;15.68;;;17.00;99.90;;;;;;5065944;28;20048;-56
2023/10/02 02:34:14;;;;;;;28.77;16.45;;;17.00;99.90;;;;;;5061592;28;20177;-56
2023/10/02 02:36:47;;;;;;;26.55;14.55;;;17.00;99.90;;;;;;5066379;28;20032;-54
2023/10/02 02:39:16;;;;;;;25.77;15.50;;;17.00;99.90;;;;;;5065062;28;20060;-58
2023/10/02 02:41:44;;;;;;;26.67;15.20;;;17.00;99.90;;;;;;5068055;28;20112;-55
2023/10/02 02:44:36;;;;;;;27.40;16.00;;;17.00;99.90;;;;;;5068470;28;20403;-56
2023/10/02 02:46:56;;;;;;;24.13;14.73;;;16.90;99.90;;;;;;5065857;28;20048;-55
2023/10/02 02:49:25;;;;;;;25.63;15.60;;;17.00;99.90;;;;;;5062310;28;20066;-58
2023/10/02 02:51:55;;;;;;;27.30;15.48;;;16.90;99.90;;;;;;5056871;28;20075;-55
2023/10/02 02:54:24;;;;;;;28.33;15.65;;;16.90;99.90;;;;;;5066402;28;20036;-56
2023/10/02 02:56:56;;;;;;;25.08;14.60;;;17.00;99.90;;;;;;5067357;28;20403;-58
2023/10/02 02:59:26;;;;;;;26.33;15.13;;;16.90;99.90;;;;;;5066804;28;20046;-58
2023/10/02 03:02:08;;;;;;;28.88;15.35;;;16.90;99.90;;;;;;5068342;28;20064;-55
2023/10/02 03:04:40;;;;;;;27.10;14.95;;;16.90;99.90;;;;;;5064602;28;20436;-55
2023/10/02 03:07:18;;;;;;;27.42;15.13;;;16.90;99.90;;;;;;5068651;28;20120;-56
2023/10/02 03:09:44;;;;;;;29.10;14.52;;;16.90;99.90;;;;;;5064871;28;20098;-54
2023/10/02 03:12:09;;;;;;;27.85;16.20;;;16.90;99.90;;;;;;5068838;28;20032;-55
2023/10/02 03:14:35;;;;;;;30.65;15.23;;;16.90;99.90;;;;;;5067828;28;20032;-52
2023/10/02 03:17:28;;;;;;;30.23;15.20;;;16.80;99.90;;;;;;5068800;28;20049;-57
2023/10/02 03:19:47;;;;;;;23.80;15.43;;;16.80;99.90;;;;;;5062426;28;20055;-57
2023/10/02 03:22:15;;;;;;;26.85;16.65;;;16.80;99.90;;;;;;5068602;28;20051;-56
2023/10/02 03:24:41;;;;;;;29.77;17.70;;;16.70;99.90;;;;;;5065902;28;20072;-57
2023/10/02 03:27:08;;;;;;;32.35;17.40;;;16.70;99.90;;;;;;5068875;28;20468;-55
2023/10/02 03:29:34;;;;;;;27.45;16.15;;;16.70;99.90;;;;;;5060842;28;20072;-56
2023/10/02 03:32:04;;;;;;;26.17;16.30;;;16.70;99.90;;;;;;5068515;28;20044;-56
2023/10/02 03:34:34;;;;;;;27.40;16.00;;;16.60;99.90;;;;;;5062677;28;20352;-57
2023/10/02 03:42:22;;;;;;;26.48;15.20;;;16.50;99.90;;;;;;5068518;28;20048;-54
2023/10/02 03:44:56;;;;;;;35.03;17.20;;;16.50;99.90;;;;;;5057990;28;20029;-54
2023/10/02 03:47:33;;;;;;;27.17;15.38;;;16.50;99.90;;;;;;5065990;28;20116;-57
2023/10/02 03:50:02;;;;;;;31.30;16.50;;;16.40;99.90;;;;;;5061042;28;20446;-55
2023/10/02 03:52:30;;;;;;;30.20;17.55;;;16.40;99.90;;;;;;5065504;28;20048;-56
2023/10/02 03:54:56;;;;;;;29.00;16.55;;;16.40;99.90;;;;;;5073687;28;20094;-56
2023/10/02 03:57:47;;;;;;;28.58;16.52;;;16.30;99.90;;;;;;5078621;28;20264;-55
2023/10/02 04:00:18;;;;;;;31.30;16.92;;;16.30;99.90;;;;;;5067459;28;20048;-56
2023/10/02 04:02:49;;;;;;;27.17;16.55;;;16.30;99.90;;;;;;5073808;28;20048;-55
2023/10/02 04:05:32;;;;;;;30.88;17.65;;;16.20;99.90;;;;;;5071511;28;20051;-56
2023/10/02 04:08:14;;;;;;;29.52;16.52;;;16.20;99.90;;;;;;5075048;28;20040;-53
2023/10/02 04:10:57;;;;;;;29.17;16.50;;;16.20;99.90;;;;;;5072315;28;20051;-55
2023/10/02 04:13:25;;;;;;;31.70;17.40;;;16.20;99.90;;;;;;5074903;28;20045;-54
2023/10/02 04:15:53;;;;;;;27.05;15.68;;;16.20;99.90;;;;;;5068458;28;20305;-53
2023/10/02 04:18:45;;;;;;;31.77;17.70;;;16.20;99.90;;;;;;5074933;28;20093;-55
2023/10/02 04:21:12;;;;;;;28.75;15.85;;;16.20;99.90;;;;;;5071050;28;20576;-52
2023/10/02 04:23:42;;;;;;;27.40;16.77;;;16.20;99.90;;;;;;5074668;28;20400;-54
2023/10/02 04:26:22;;;;;;;28.20;16.63;;;16.20;99.90;;;;;;5072101;28;20080;-56
2023/10/02 04:28:56;;;;;;;27.80;15.63;;;16.20;99.90;;;;;;5074460;28;20410;-55
2023/10/02 04:31:29;;;;;;;29.23;16.35;;;16.20;99.90;;;;;;5069761;28;20074;-55
2023/10/02 04:36:43;;;;;;;29.35;16.63;;;16.20;99.90;;;;;;5071558;28;20049;-56
2023/10/02 04:40:14;;;;;;;28.50;16.63;;;16.20;99.90;;;;;;5074899;28;20035;-55
2023/10/02 04:42:15;;;;;;;28.10;15.75;;;16.20;99.90;;;;;;5069326;28;20043;-57
2023/10/02 04:44:46;;;;;;;28.30;16.60;;;16.20;99.90;;;;;;5069002;28;20119;-57
2023/10/02 04:47:19;;;;;;;36.80;17.85;;;16.20;99.90;;;;;;5063183;28;20049;-57
2023/10/02 04:52:56;;;;;;;25.55;16.15;;;16.20;99.90;;;;;;5028286;28;20116;-55
2023/10/02 04:56:06;;;;;;;32.03;17.13;;;16.20;99.90;;;;;;5072958;28;20560;-56
2023/10/02 04:58:19;;;;;;;27.63;16.88;;;16.20;99.90;;;;;;5071599;28;20068;-54
2023/10/02 05:03:33;;;;;;;31.15;16.55;;;16.20;99.90;;;;;;5073991;28;20078;-57
2023/10/02 05:05:59;;;;;;;30.95;16.63;;;16.20;99.90;;;;;;5070841;28;20040;-55
2023/10/02 05:08:41;;;;;;;30.40;17.63;;;16.20;99.90;;;;;;5066765;28;20047;-57
2023/10/02 05:11:23;;;;;;;31.02;16.60;;;16.10;99.90;;;;;;5059205;28;20029;-57
2023/10/02 05:16:37;;;;;;;32.33;17.48;;;16.10;99.90;;;;;;5071228;28;20070;-55
2023/10/02 05:19:04;;;;;;;27.85;16.05;;;16.10;99.90;;;;;;5066164;28;20036;-55
2023/10/02 05:21:36;;;;;;;30.70;16.50;;;16.10;99.90;;;;;;5069783;28;20040;-57
2023/10/02 05:24:11;;;;;;;33.03;16.60;;;16.10;99.90;;;;;;5063607;28;20127;-53
2023/10/02 05:26:44;;;;;;;31.48;17.90;;;16.10;99.90;;;;;;5069738;28;20115;-55
2023/10/02 05:29:17;;;;;;;30.27;17.30;;;16.00;99.90;;;;;;5068016;28;20446;-58
2023/10/02 05:31:47;;;;;;;26.67;15.75;;;16.10;99.90;;;;;;5062445;28;20040;-57
2023/10/02 05:34:24;;;;;;;33.83;16.45;;;16.00;99.90;;;;;;5066689;28;20036;-58
2023/10/02 05:37:23;;;;;;;;;;;16.10;99.90;;;;;;5070844;28;20541;-58
2023/10/02 05:39:50;;;;;;;31.23;16.40;;;16.00;99.90;;;;;;5063302;28;19920;-57
2023/10/02 05:42:15;;;;;;;29.25;17.13;;;16.00;99.90;;;;;;5059483;28;20115;-56
2023/10/02 05:44:45;;;;;;;31.58;16.35;;;16.00;99.90;;;;;;5059473;28;20036;-56
2023/10/02 05:47:15;;;;;;;31.05;17.88;;;16.00;99.90;;;;;;5052876;28;20045;-57
2023/10/02 05:49:47;;;;;;;28.63;15.93;;;16.00;99.90;;;;;;5049627;28;20486;-58
2023/10/02 05:52:23;;;;;;;30.98;15.52;;;16.00;99.90;;;;;;5055551;28;20032;-55
2023/10/02 05:54:53;;;;;;;26.27;15.43;;;15.90;99.90;;;;;;5049039;28;20037;-58
2023/10/02 05:57:31;;;;;;;31.60;16.65;;;15.90;99.90;;;;;;5052442;28;20045;-56
2023/10/02 05:59:58;;;;;;;30.10;16.08;;;16.00;99.90;;;;;;5054437;28;20079;-58
2023/10/02 06:02:24;;;;;;;29.33;14.93;;;16.00;99.90;;;;;;5056684;28;20120;-57
2023/10/02 06:04:53;;;;;;;26.13;13.30;;;16.00;99.90;;;;;;5054836;28;20045;-58
2023/10/02 06:10:25;;;;;;;26.83;14.93;;;16.00;99.90;;;;;;4997309;28;20045;-56
2023/10/02 06:13:05;;;;;;;29.00;16.17;;;16.00;99.90;;;;;;4996559;28;20046;-57
2023/10/02 06:15:46;;;;;;;25.75;14.90;;;16.10;99.90;;;;;;4989034;28;20417;-56
2023/10/02 06:18:27;;;;;;;28.52;15.45;;;16.10;99.90;;;;;;4988276;28;20050;-57
2023/10/02 06:21:00;;;;;;;29.25;15.65;;;16.10;99.90;;;;;;4987303;28;20136;-58
2023/10/02 06:23:29;;;;;;;28.80;15.85;;;16.20;99.90;;;;;;4986054;28;20052;-57
2023/10/02 06:25:58;;;;;;;29.75;15.80;;;16.20;99.90;;;;;;4987516;28;20054;-56
2023/10/02 06:28:27;;;;;;;26.67;15.20;;;16.30;99.90;;;;;;4994460;28;20686;-57
2023/10/02 06:30:56;;;;;;;29.70;15.15;;;16.40;99.90;;;;;;4991850;28;20125;-56
2023/10/02 06:33:23;;;;;;;26.73;15.52;;;16.50;99.90;;;;;;4988253;28;20074;-57
2023/10/02 06:36:00;;;;;;;27.85;14.30;;;16.70;99.90;;;;;;4987868;28;20057;-54
2023/10/02 06:38:32;;;;;;;;;;;16.80;99.90;;;;;;4987266;28;20049;-57
2023/10/02 06:40:59;;;;;;;28.38;14.82;;;16.90;99.90;;;;;;4972486;28;20305;-55
2023/10/02 06:43:29;;;;;;;28.30;14.98;;;16.90;99.90;;;;;;4971575;28;20053;-56
2023/10/02 06:46:09;;;;;;;28.38;15.13;;;16.90;99.90;;;;;;5049042;28;20468;-55
2023/10/02 06:48:35;;;;;;;22.33;14.02;;;17.00;99.90;;;;;;5047368;28;20103;-54
2023/10/02 06:51:04;;;;;;;26.02;14.48;;;17.00;99.90;;;;;;5039164;28;20508;-55
2023/10/02 06:53:31;;;;;;;32.28;16.25;;;17.00;99.90;;;;;;5056241;28;20121;-56
2023/10/02 06:56:03;;;;;;;;;;;17.00;99.90;;;;;;5041628;28;20051;-56
2023/10/02 06:58:29;;;;;;;26.67;15.45;;;17.00;99.90;;;;;;5047396;28;20090;-55
2023/10/02 07:00:55;;;;;;;25.98;15.98;;;17.00;99.90;;;;;;5043992;28;20139;-55
2023/10/02 07:03:21;;;;;;;23.70;15.02;;;17.00;99.90;;;;;;5043548;28;20033;-57
2023/10/02 07:05:48;;;;;;;;;;;17.00;99.90;;;;;;5053526;28;20047;-57
2023/10/02 07:08:26;;;;;;;30.25;15.32;;;17.00;99.90;;;;;;5050990;28;19927;-59
2023/10/02 07:10:53;;;;;;;28.70;16.77;;;17.00;99.90;;;;;;5057848;28;20044;-58
2023/10/02 07:13:20;;;;;;;26.40;15.52;;;17.10;99.90;;;;;;5052255;28;20637;-54
2023/10/02 07:15:55;;;;;;;30.33;14.82;;;17.20;99.90;;;;;;5057499;28;20179;-57
2023/10/02 07:18:35;;;;;;;27.55;15.80;;;17.30;99.90;;;;;;5064413;28;20029;-56
2023/10/02 07:21:01;;;;;;;28.58;15.52;;;17.40;99.90;;;;;;5062159;28;20119;-57
2023/10/02 07:23:30;;;;;;;28.52;14.48;;;17.40;99.90;;;;;;5069334;28;20044;-57
2023/10/02 07:25:56;;;;;;;27.98;15.73;;;17.50;99.90;;;;;;5067403;28;20652;-58
2023/10/02 07:28:21;;;;;;;26.73;16.33;;;17.50;99.90;;;;;;5054166;28;20037;-54
2023/10/02 07:30:50;;;;;;;29.27;15.75;;;17.60;99.90;;;;;;5055226;28;20021;-57
2023/10/02 07:33:19;;;;;;;29.90;16.08;;;17.60;99.90;;;;;;5061528;28;20109;-57
2023/10/02 07:35:52;;;;;;;25.35;15.70;;;17.60;99.90;;;;;;5058192;28;20055;-56
2023/10/02 07:38:29;;;;;;;31.70;16.15;;;17.60;99.90;;;;;;5050792;28;20059;-56
2023/10/02 07:41:06;;;;;;;26.17;15.52;;;17.50;99.90;;;;;;5055847;28;20056;-58
2023/10/02 07:43:32;;;;;;;30.88;17.00;;;17.50;99.90;;;;;;5057639;28;20037;-57
2023/10/02 07:46:14;;;;;;;36.75;18.38;;;17.50;99.90;;;;;;5049124;28;20045;-59
2023/10/02 07:48:55;;;;;;;25.65;14.70;;;17.50;99.90;;;;;;5049525;28;20044;-57
2023/10/02 07:51:30;;;;;;;25.58;16.02;;;17.50;99.90;;;;;;5050157;28;20079;-58
2023/10/02 07:53:56;;;;;;;25.35;15.90;;;17.60;99.90;;;;;;5050464;28;20127;-58
2023/10/02 07:56:24;;;;;;;28.60;15.32;;;17.60;99.90;;;;;;5052565;28;20071;-58
2023/10/02 07:59:01;;;;;;;26.77;14.68;;;17.70;99.90;;;;;;5050169;28;20069;-58
2023/10/02 08:01:27;;;;;;;24.25;15.13;;;17.70;99.90;;;;;;5052058;28;20048;-58
2023/10/02 08:03:55;;;;;;;37.45;16.55;;;17.70;99.90;;;;;;5059313;28;20418;-58
2023/10/02 08:11:50;;;;;;;30.25;16.75;;;17.80;99.90;;;;;;5049470;28;20123;-58
2023/10/02 08:14:35;;;;;;;33.97;18.92;;;17.80;99.90;;;;;;5047211;28;20052;-56
2023/10/02 08:17:08;;;;;;;29.00;18.23;;;17.90;99.90;;;;;;5055827;28;20033;-58
2023/10/02 08:19:36;;;;;;;33.53;17.08;;;17.90;99.90;;;;;;5048966;28;20060;-58
2023/10/02 08:22:05;;;;;;;29.88;16.88;;;18.00;99.90;;;;;;5052299;28;20095;-58
2023/10/02 08:24:37;;;;;;;29.35;17.70;;;18.00;99.90;;;;;;5052015;28;20091;-59
2023/10/02 08:27:04;;;;;;;33.03;17.65;;;18.10;99.90;;;;;;5057768;28;20045;-57
2023/10/02 08:29:30;;;;;;;33.78;16.55;;;18.20;99.90;;;;;;5059346;28;20518;-59
2023/10/02 08:31:55;;;;;;;29.48;17.58;;;18.30;99.90;;;;;;5056796;28;20036;-58
2023/10/02 08:34:24;;;;;;;32.03;17.92;;;18.40;99.90;;;;;;5061508;28;20178;-58
2023/10/02 08:37:04;;;;;;;32.17;16.83;;;18.50;99.90;;;;;;5056237;28;20083;-59
2023/10/02 08:39:41;;;;;;;32.05;18.67;;;18.60;99.90;;;;;;5069943;28;20111;-59
2023/10/02 08:42:13;;;;;;;31.42;18.23;;;18.60;99.90;;;;;;5067334;28;20042;-59
2023/10/02 08:44:43;;;;;;;33.33;19.40;;;18.70;99.90;;;;;;5061220;28;20044;-57
2023/10/02 08:47:11;;;;;;;31.75;18.27;;;18.70;99.90;;;;;;5051068;28;20134;-58
2023/10/02 08:49:40;;;;;;;32.20;18.02;;;18.80;99.90;;;;;;5062519;28;20044;-58
2023/10/02 08:52:13;;;;;;;30.45;18.95;;;18.90;99.90;;;;;;5072454;28;20040;-58
2023/10/02 08:54:44;;;;;;;33.05;18.45;;;19.00;99.90;;;;;;5057361;28;20036;-59
2023/10/02 08:57:10;;;;;;;34.30;19.45;;;19.10;99.90;;;;;;5061613;28;20044;-59
2023/10/02 08:59:39;;;;;;;38.90;19.25;;;19.10;99.90;;;;;;5054167;28;20452;-58
2023/10/02 09:02:15;;;;;;;36.50;18.50;;;19.20;99.90;;;;;;5045835;28;20025;-58
2023/10/02 09:04:53;;;;;;;34.03;18.25;;;19.30;99.90;;;;;;5051354;28;20039;-59
2023/10/02 09:08:15;;;;;;;29.70;16.80;;;19.30;99.90;;;;;;5050070;28;20076;-57
2023/10/02 09:10:25;;;;;;;28.40;17.67;;;19.40;99.90;;;;;;5048943;28;20565;-58
2023/10/02 09:13:09;;;;;;;29.50;17.20;;;19.40;99.90;;;;;;5048290;28;20090;-59
2023/10/02 09:15:35;;;;;;;34.95;19.08;;;19.50;99.90;;;;;;5046974;28;20045;-58
2023/10/02 09:18:19;;;;;;;27.30;18.65;;;19.60;99.90;;;;;;5048966;28;20542;-58
2023/10/02 09:21:13;;;;;;;33.38;17.55;;;19.60;99.90;;;;;;5047793;28;20043;-59
2023/10/02 09:23:49;;;;;;;30.02;18.20;;;19.60;99.90;;;;;;5045191;28;20049;-59
2023/10/02 09:26:23;;;;;;;;;;;19.70;99.90;;;;;;5049459;28;20029;-59
2023/10/02 09:28:58;;;;;;;30.63;17.83;;;19.80;99.90;;;;;;5050079;28;19920;-59
2023/10/02 09:31:30;;;;;;;32.10;17.88;;;19.80;99.90;;;;;;5051836;28;20054;-58
2023/10/02 09:33:56;;;;;;;31.65;18.55;;;19.80;99.90;;;;;;5046018;28;20045;-57
2023/10/02 09:36:36;;;;;;;31.08;19.15;;;19.80;99.90;;;;;;5051082;28;20044;-59
2023/10/02 09:42:00;;;;;;;33.22;19.02;;;19.80;99.90;;;;;;5056881;28;20049;-57
2023/10/02 09:44:42;;;;;;;30.70;18.48;;;19.80;99.90;;;;;;5047658;28;20040;-59
2023/10/02 09:47:08;;;;;;;31.00;18.27;;;19.80;99.90;;;;;;5047818;28;20091;-59
2023/10/02 09:49:47;;;;;;;35.75;18.98;;;19.90;99.90;;;;;;5043640;28;20442;-58
2023/10/02 09:52:23;;;;;;;36.63;19.85;;;19.90;99.90;;;;;;5041681;28;20092;-58
2023/10/02 09:55:03;;;;;;;33.00;19.55;;;20.10;99.90;;;;;;5045792;28;20651;-58
2023/10/02 09:57:36;;;;;;;37.20;21.45;;;20.20;99.90;;;;;;5051556;28;20036;-58
2023/10/02 10:00:34;;;;;;;38.38;21.38;;;20.40;99.90;;;;;;5051639;28;20040;-59
2023/10/02 10:03:22;;;;;;;35.55;20.75;;;20.60;99.90;;;;;;5049670;28;20507;-59
2023/10/02 10:06:06;;;;;;;35.90;22.65;;;20.70;99.90;;;;;;5050827;28;20095;-59
2023/10/02 10:09:18;;;;;;;40.47;22.60;;;20.80;99.90;;;;;;5047684;28;20037;-58
2023/10/02 10:11:45;;;;;;;37.95;21.48;;;20.80;99.90;;;;;;5049899;28;20044;-59
2023/10/02 10:14:35;;;;;;;36.80;21.02;;;20.90;99.90;;;;;;5050550;28;20089;-58
2023/10/02 10:17:15;;;;;;;37.30;22.00;;;20.90;99.90;;;;;;5051044;28;20060;-57
2023/10/02 10:20:18;;;;;;;34.78;19.92;;;20.90;99.90;;;;;;5048327;28;20068;-58
2023/10/02 10:22:51;;;;;;;35.55;19.98;;;21.00;99.90;;;;;;5049865;28;20079;-60
2023/10/02 10:25:22;;;;;;;34.72;20.65;;;21.00;99.90;;;;;;5049412;28;20510;-58
2023/10/02 10:27:54;;;;;;;35.90;19.85;;;21.00;99.90;;;;;;5051388;28;20076;-59
2023/10/02 10:30:24;;;;;;;30.75;17.83;;;21.00;99.90;;;;;;5047388;28;20120;-58
2023/10/02 10:35:35;;;;;;;30.67;18.48;;;21.00;99.90;;;;;;5047916;28;20040;-58
2023/10/02 10:38:36;;;;;;;37.47;19.42;;;21.10;99.90;;;;;;5046555;28;20049;-60
2023/10/02 10:41:05;;;;;;;33.38;19.35;;;21.20;99.90;;;;;;5049520;28;20396;-59
2023/10/02 10:43:46;;;;;;;32.88;19.67;;;21.20;99.90;;;;;;5048918;28;20037;-58
2023/10/02 10:46:24;;;;;;;32.10;18.02;;;21.30;99.90;;;;;;5050207;28;20095;-58
2023/10/02 10:48:59;;;;;;;33.92;19.20;;;21.30;99.90;;;;;;5051125;28;20041;-58
2023/10/02 10:51:27;;;;;;;32.05;19.65;;;21.30;99.90;;;;;;5044899;28;20033;-59
2023/10/02 10:54:39;;;;;;;32.80;18.27;;;21.40;99.90;;;;;;5045268;28;20131;-57
2023/10/02 10:59:47;;;;;;;33.45;18.95;;;21.50;99.90;;;;;;5043385;28;20033;-60
2023/10/02 11:02:15;;;;;;;30.45;19.52;;;21.50;99.90;;;;;;5049844;28;20518;-58
2023/10/02 11:04:51;;;;;;;37.00;19.42;;;21.50;99.90;;;;;;5047146;28;20041;-59
2023/10/02 11:07:25;;;;;;;30.15;18.70;;;21.50;99.90;;;;;;5047083;28;20038;-58
2023/10/02 11:10:14;;;;;;;31.48;18.45;;;21.50;99.90;;;;;;5049882;28;20044;-58
2023/10/02 11:12:57;;;;;;;26.40;15.38;;;21.50;99.90;;;;;;5046741;28;20492;-59
2023/10/02 11:15:46;;;;;;;32.22;17.75;;;21.50;99.90;;;;;;5050878;28;20037;-59
2023/10/02 11:18:26;;;;;;;29.88;16.30;;;21.60;99.90;;;;;;5045756;28;20523;-58
2023/10/02 11:20:57;;;;;;;33.35;16.70;;;21.70;99.90;;;;;;5041782;28;20147;-58
2023/10/02 11:23:37;;;;;;;33.10;17.38;;;21.80;99.90;;;;;;5038873;28;20531;-58
2023/10/02 11:26:21;;;;;;;28.70;17.70;;;21.80;99.90;;;;;;5048785;28;20056;-56
2023/10/02 11:28:50;;;;;;;35.95;18.58;;;21.80;99.90;;;;;;5045699;28;20420;-58
2023/10/02 11:31:45;;;;;;;27.80;16.63;;;21.70;99.90;;;;;;5050017;28;20032;-58
2023/10/02 11:34:03;;;;;;;31.35;17.13;;;21.70;99.90;;;;;;5043703;28;20747;-57
2023/10/02 11:36:33;;;;;;;26.02;16.65;;;21.70;99.90;;;;;;5049891;28;20560;-57
2023/10/02 11:39:01;;;;;;;29.50;16.30;;;21.60;99.90;;;;;;5044455;28;20132;-57
2023/10/02 11:41:27;;;;;;;29.80;16.23;;;21.60;99.90;;;;;;5046110;28;20051;-57
2023/10/02 11:43:56;;;;;;;;;;;21.60;99.90;;;;;;5048616;28;20427;-57
2023/10/02 11:46:22;;;;;;;32.53;16.77;;;21.60;99.90;;;;;;5052832;28;19923;-55
2023/10/02 11:48:51;;;;;;;;;;;21.60;99.90;;;;;;5045252;28;20038;-56
2023/10/02 11:51:17;;;;;;;26.42;15.93;;;21.60;99.90;;;;;;5050293;28;20418;-58
2023/10/02 11:53:42;;;;;;;;;;;21.60;99.90;;;;;;5051246;28;20261;-55
2023/10/02 11:56:08;;;;;;;29.50;16.50;;;21.60;99.90;;;;;;5045992;28;19924;-57
2023/10/02 11:58:34;;;;;;;25.55;15.48;;;21.60;99.90;;;;;;5051915;28;20043;-56
2023/10/02 12:01:02;;;;;;;;;;;21.60;99.90;;;;;;5054254;28;20044;-56
2023/10/02 12:03:28;;;;;;;30.80;16.42;;;21.60;99.90;;;;;;5053176;28;19962;-58
2023/10/02 12:05:54;;;;;;;;;;;21.50;99.90;;;;;;5055574;28;20503;-57
2023/10/02 12:08:21;;;;;;;27.13;16.30;;;21.50;99.90;;;;;;5052842;28;20398;-57
2023/10/02 12:10:47;;;;;;;26.08;15.65;;;21.40;99.90;;;;;;5053809;28;20057;-57
2023/10/02 12:13:12;;;;;;;;;;;21.40;99.90;;;;;;5049475;28;20057;-57
2023/10/02 12:15:38;;;;;;;25.70;16.50;;;21.40;99.90;;;;;;5053434;28;20001;-57
2023/10/02 12:18:04;;;;;;;;;;;21.40;99.90;;;;;;5057059;28;20037;-58
2023/10/02 12:20:30;;;;;;;29.38;16.33;;;21.40;99.90;;;;;;5051694;28;19923;-57
2023/10/02 12:22:56;;;;;;;31.80;16.08;;;21.40;99.90;;;;;;5053632;28;20094;-55
2023/10/02 12:25:22;;;;;;;;;;;21.40;99.90;;;;;;5050045;28;20314;-56
2023/10/02 12:27:49;;;;;;;28.65;16.70;;;21.50;99.90;;;;;;5051616;28;19921;-57
2023/10/02 12:30:15;;;;;;;29.75;14.32;;;21.60;99.90;;;;;;5051827;28;20033;-57
2023/10/02 12:32:41;;;;;;;;;;;21.70;99.90;;;;;;5049294;28;20408;-54
2023/10/02 12:35:07;;;;;;;22.33;14.52;;;21.80;99.90;;;;;;5050024;28;19916;-55
2023/10/02 12:37:33;;;;;;;27.50;15.40;;;21.90;99.90;;;;;;5048785;28;20048;-55
2023/10/02 12:39:59;;;;;;;;;;;22.10;99.90;;;;;;5047960;28;20038;-55
2023/10/02 12:42:25;;;;;;;27.02;15.82;;;22.20;99.90;;;;;;5053989;28;20322;-55
2023/10/02 12:44:53;;;;;;;26.00;15.02;;;22.20;99.90;;;;;;5052024;28;20033;-57
2023/10/02 12:47:19;;;;;;;28.75;15.30;;;22.30;99.90;;;;;;5048753;28;20041;-56
2023/10/02 12:49:45;;;;;;;;;;;22.50;99.90;;;;;;5051876;28;20037;-57
2023/10/02 12:52:11;;;;;;;29.00;15.13;;;22.60;99.90;;;;;;5049334;28;19916;-56
2023/10/02 12:54:37;;;;;;;27.30;15.30;;;22.60;99.90;;;;;;5052726;28;20040;-57
2023/10/02 12:57:05;;;;;;;23.08;14.35;;;22.60;99.90;;;;;;5051624;28;20076;-57
2023/10/02 12:59:30;;;;;;;27.83;14.70;;;22.60;99.90;;;;;;5049895;28;20043;-56
2023/10/02 13:01:56;;;;;;;;;;;22.60;99.90;;;;;;5054556;28;20055;-58
2023/10/02 13:04:21;;;;;;;24.02;13.43;;;22.60;99.90;;;;;;5053826;28;19998;-58
2023/10/02 13:06:47;;;;;;;25.52;14.77;;;22.50;99.90;;;;;;5055253;28;20491;-58
2023/10/02 13:11:39;;;;;;;;;;;22.30;99.90;;;;;;5054365;28;20503;-55
2023/10/02 13:14:08;;;;;;;31.17;15.50;;;22.20;99.90;;;;;;5056144;28;19916;-56
2023/10/02 13:16:38;;;;;;;27.25;14.13;;;22.10;99.90;;;;;;5053665;28;20033;-56
2023/10/02 13:19:09;;;;;;;25.00;14.98;;;22.10;99.90;;;;;;5053600;28;20040;-57
2023/10/02 13:21:37;;;;;;;23.65;13.05;;;22.20;99.90;;;;;;5053092;28;20119;-55
2023/10/02 13:24:03;;;;;;;25.63;15.75;;;22.20;99.90;;;;;;5057662;28;20044;-56
2023/10/02 13:26:29;;;;;;;22.33;13.68;;;22.20;99.90;;;;;;5056132;28;20056;-58
2023/10/02 13:28:55;;;;;;;;;;;22.20;99.90;;;;;;5056770;28;20053;-58
2023/10/02 13:31:20;;;;;;;21.08;13.88;;;22.30;99.90;;;;;;5057552;28;20011;-56
2023/10/02 13:33:51;;;;;;;24.75;14.45;;;22.30;99.90;;;;;;5055820;28;20060;-57
2023/10/02 13:36:22;;;;;;;20.75;13.85;;;22.40;99.90;;;;;;5054927;28;20115;-54